createdAt,value
2023-04-30T00:00:02.776Z,77.36
2023-04-30T00:02:32.855Z,77.56
2023-04-30T00:05:03.284Z,77.46
2023-04-30T00:07:33.145Z,77.47
2023-04-30T00:10:05.879Z,77.81
2023-04-30T00:12:35.899Z,77.66
2023-04-30T00:15:05.826Z,77.76
2023-04-30T00:17:35.743Z,77.60
2023-04-30T00:20:05.687Z,77.81
2023-04-30T00:22:36.692Z,77.77
2023-04-30T00:25:09.681Z,77.63
2023-04-30T00:27:40.874Z,77.75
2023-04-30T00:30:11.848Z,78.05
2023-04-30T00:32:41.819Z,78.11
2023-04-30T00:35:12.782Z,78.16
2023-04-30T00:37:45.308Z,78.06
2023-04-30T00:40:18.603Z,78.35
2023-04-30T00:42:48.895Z,78.36
2023-04-30T00:45:22.320Z,78.54
2023-04-30T00:47:52.884Z,78.49
2023-04-30T00:50:23.384Z,78.63
2023-04-30T00:52:53.681Z,78.54
2023-04-30T00:55:26.488Z,78.72
2023-04-30T00:57:56.795Z,78.48
2023-04-30T01:00:28.071Z,78.67
2023-04-30T01:02:59.464Z,78.78
2023-04-30T01:05:29.545Z,78.93
2023-04-30T01:08:00.224Z,79.14
2023-04-30T01:10:39.281Z,79.26
2023-04-30T01:13:13.602Z,79.02
2023-04-30T01:15:57.898Z,79.00
2023-04-30T01:18:32.742Z,79.11
2023-04-30T01:21:06.048Z,79.43
2023-04-30T01:23:58.018Z,79.34
2023-04-30T01:26:51.596Z,79.65
2023-04-30T01:29:25.677Z,79.24
2023-04-30T01:31:55.770Z,79.37
2023-04-30T01:34:25.664Z,79.49
2023-04-30T01:37:07.315Z,79.57
2023-04-30T01:39:56.846Z,79.59
2023-04-30T01:42:33.954Z,79.58
2023-04-30T01:45:23.393Z,79.91
2023-04-30T01:48:00.554Z,79.61
2023-04-30T01:50:40.641Z,79.84
2023-04-30T01:53:16.947Z,79.71
2023-04-30T01:55:51.362Z,79.73
2023-04-30T01:58:22.133Z,79.54
2023-04-30T02:00:55.121Z,79.89
2023-04-30T02:03:25.272Z,79.67
2023-04-30T02:05:56.368Z,80.00
2023-04-30T02:08:27.375Z,80.26
2023-04-30T02:10:57.436Z,80.26
2023-04-30T02:13:27.290Z,80.24
2023-04-30T02:15:59.878Z,80.25
2023-04-30T02:18:30.015Z,80.09
2023-04-30T02:21:00.609Z,80.57
2023-04-30T02:23:30.515Z,80.36
2023-04-30T02:26:00.537Z,80.19
2023-04-30T02:28:30.478Z,80.11
2023-04-30T02:31:03.340Z,80.53
2023-04-30T02:33:33.269Z,80.48
2023-04-30T02:36:04.183Z,80.81
2023-04-30T02:38:34.308Z,80.77
2023-04-30T02:41:04.268Z,80.59
2023-04-30T02:43:34.082Z,80.79
2023-04-30T02:46:07.031Z,81.08
2023-04-30T02:48:38.022Z,81.49
2023-04-30T02:51:08.602Z,81.92
2023-04-30T02:53:38.577Z,82.12
2023-04-30T02:56:09.967Z,82.08
2023-04-30T02:58:40.165Z,82.27
2023-04-30T03:01:12.835Z,82.85
2023-04-30T03:03:42.888Z,82.54
2023-04-30T03:06:12.933Z,82.39
2023-04-30T03:08:42.830Z,82.63
2023-04-30T03:11:12.750Z,82.86
2023-04-30T03:13:42.810Z,82.83
2023-04-30T03:16:15.367Z,83.15
2023-04-30T03:18:45.233Z,82.73
2023-04-30T03:21:15.064Z,82.88
2023-04-30T03:23:45.101Z,82.92
2023-04-30T03:26:15.315Z,82.66
2023-04-30T03:28:45.132Z,82.63
2023-04-30T03:31:17.618Z,82.92
2023-04-30T03:33:47.572Z,82.91
2023-04-30T03:36:17.397Z,83.05
2023-04-30T03:38:47.269Z,82.96
2023-04-30T03:41:17.080Z,83.04
2023-04-30T03:43:46.921Z,83.14
2023-04-30T03:46:19.716Z,83.09
2023-04-30T03:48:49.757Z,83.11
2023-04-30T03:51:20.041Z,83.16
2023-04-30T03:53:49.828Z,83.20
2023-04-30T03:56:19.706Z,83.71
2023-04-30T03:58:49.591Z,83.83
2023-04-30T04:01:22.287Z,83.57
2023-04-30T04:03:52.607Z,83.83
2023-04-30T04:06:22.878Z,84.00
2023-04-30T04:08:53.323Z,83.83
2023-04-30T04:11:23.837Z,83.80
2023-04-30T04:13:53.814Z,84.12
2023-04-30T04:16:27.082Z,84.40
2023-04-30T04:18:56.969Z,84.23
2023-04-30T04:21:27.254Z,84.40
2023-04-30T04:23:57.390Z,84.24
2023-04-30T04:26:29.156Z,84.35
2023-04-30T04:28:59.018Z,84.63
2023-04-30T04:31:31.788Z,84.75
2023-04-30T04:34:02.961Z,84.58
2023-04-30T04:36:34.360Z,84.77
2023-04-30T04:39:04.849Z,84.90
2023-04-30T04:41:36.554Z,84.75
2023-04-30T04:44:06.714Z,84.95
2023-04-30T04:46:42.542Z,84.89
2023-04-30T04:49:12.852Z,84.79
2023-04-30T04:51:42.715Z,84.99
2023-04-30T04:54:12.692Z,85.26
2023-04-30T04:56:42.712Z,85.65
2023-04-30T04:59:12.722Z,85.56
2023-04-30T05:01:48.404Z,85.73
2023-04-30T05:04:18.306Z,85.96
2023-04-30T05:06:48.591Z,85.73
2023-04-30T05:09:18.583Z,85.98
2023-04-30T05:11:49.364Z,85.89
2023-04-30T05:14:21.082Z,86.54
2023-04-30T05:16:53.678Z,86.80
2023-04-30T05:19:23.538Z,86.53
2023-04-30T05:21:53.427Z,87.05
2023-04-30T05:24:23.570Z,87.25
2023-04-30T05:26:53.588Z,87.26
2023-04-30T05:29:23.414Z,87.70
2023-04-30T05:31:56.292Z,88.05
2023-04-30T05:34:26.291Z,87.86
2023-04-30T05:36:56.631Z,87.91
2023-04-30T05:39:26.734Z,88.20
2023-04-30T05:41:58.961Z,88.03
2023-04-30T05:44:30.604Z,89.06
2023-04-30T05:47:03.072Z,88.77
2023-04-30T05:49:34.418Z,89.22
2023-04-30T05:52:06.005Z,90.52
2023-04-30T05:54:37.108Z,90.53
2023-04-30T05:57:07.133Z,90.22
2023-04-30T05:59:37.081Z,90.20
2023-04-30T06:02:09.903Z,90.27
2023-04-30T06:04:39.865Z,89.95
2023-04-30T06:07:09.755Z,89.77
2023-04-30T06:09:39.594Z,90.29
2023-04-30T06:12:09.551Z,90.19
2023-04-30T06:14:40.099Z,91.70
2023-04-30T06:17:12.917Z,91.36
2023-04-30T06:19:42.813Z,92.45
2023-04-30T06:22:12.703Z,92.30
2023-04-30T06:24:42.609Z,92.25
2023-04-30T06:27:12.585Z,91.93
2023-04-30T06:29:42.481Z,92.01
2023-04-30T06:32:15.115Z,91.87
2023-04-30T06:34:45.280Z,91.52
2023-04-30T06:37:15.245Z,90.54
2023-04-30T06:39:45.079Z,89.62
2023-04-30T06:42:14.935Z,88.34
2023-04-30T06:44:45.865Z,87.07
2023-04-30T06:47:18.669Z,87.29
2023-04-30T06:49:49.668Z,86.00
2023-04-30T06:52:19.572Z,86.28
2023-04-30T06:54:49.488Z,82.58
2023-04-30T06:57:19.440Z,82.37
2023-04-30T06:59:50.350Z,81.79
2023-04-30T07:02:22.922Z,81.83
2023-04-30T07:04:52.842Z,81.59
2023-04-30T07:07:23.419Z,81.80
2023-04-30T07:09:53.944Z,81.03
2023-04-30T07:12:24.549Z,77.54
2023-04-30T07:14:54.562Z,78.53
2023-04-30T07:17:27.898Z,77.58
2023-04-30T07:19:57.918Z,78.45
2023-04-30T07:22:28.170Z,76.98
2023-04-30T07:24:58.448Z,76.60
2023-04-30T07:27:28.643Z,73.51
2023-04-30T07:29:58.563Z,74.25
2023-04-30T07:32:31.149Z,74.01
2023-04-30T07:35:01.354Z,74.10
2023-04-30T07:37:32.564Z,71.84
2023-04-30T07:40:10.402Z,71.29
2023-04-30T07:42:42.976Z,70.52
2023-04-30T07:45:14.165Z,70.90
2023-04-30T07:47:47.878Z,70.86
2023-04-30T07:50:18.627Z,71.04
2023-04-30T07:52:48.596Z,70.94
2023-04-30T07:55:18.823Z,68.93
2023-04-30T07:57:50.644Z,69.77
2023-04-30T08:00:20.777Z,69.74
2023-04-30T08:02:53.616Z,68.08
2023-04-30T08:05:23.842Z,66.96
2023-04-30T08:07:53.819Z,66.82
2023-04-30T08:10:23.790Z,64.98
2023-04-30T08:12:53.806Z,64.39
2023-04-30T08:15:27.328Z,65.88
2023-04-30T08:18:01.272Z,65.08
2023-04-30T08:20:32.254Z,61.94
2023-04-30T08:23:02.512Z,62.63
2023-04-30T08:25:32.923Z,63.73
2023-04-30T08:28:02.917Z,63.51
2023-04-30T08:30:32.823Z,63.66
2023-04-30T08:33:05.756Z,63.09
2023-04-30T08:35:35.766Z,63.43
2023-04-30T08:38:05.804Z,61.64
2023-04-30T08:40:51.166Z,61.68
2023-04-30T08:43:22.935Z,60.77
2023-04-30T08:45:55.022Z,59.96
2023-04-30T08:48:29.097Z,58.43
2023-04-30T08:50:59.120Z,59.64
2023-04-30T08:53:29.024Z,59.39
2023-04-30T08:55:58.953Z,59.89
2023-04-30T08:58:28.955Z,56.46
2023-04-30T09:01:01.415Z,56.17
2023-04-30T09:03:34.187Z,56.87
2023-04-30T09:06:04.535Z,57.71
2023-04-30T09:08:47.857Z,53.64
2023-04-30T09:11:25.658Z,53.60
2023-04-30T09:13:59.178Z,56.45
2023-04-30T09:16:31.429Z,55.52
2023-04-30T09:19:04.318Z,54.27
2023-04-30T09:21:37.722Z,54.05
2023-04-30T09:24:08.965Z,53.82
2023-04-30T09:26:40.692Z,55.01
2023-04-30T09:29:11.005Z,55.93
2023-04-30T09:31:42.011Z,56.46
2023-04-30T09:34:14.761Z,53.00
2023-04-30T09:36:56.771Z,53.50
2023-04-30T09:39:26.931Z,54.19
2023-04-30T09:42:10.628Z,49.03
2023-04-30T09:44:41.775Z,53.07
2023-04-30T09:47:16.028Z,52.20
2023-04-30T09:49:54.055Z,50.39
2023-04-30T09:52:24.884Z,51.00
2023-04-30T09:54:55.012Z,50.56
2023-04-30T09:57:27.373Z,51.72
2023-04-30T09:59:58.582Z,52.91
2023-04-30T10:02:29.526Z,52.46
2023-04-30T10:05:03.623Z,52.25
2023-04-30T10:07:39.278Z,49.21
2023-04-30T10:10:12.155Z,50.49
2023-04-30T10:12:46.450Z,50.38
2023-04-30T10:15:20.685Z,49.21
2023-04-30T10:17:53.703Z,48.90
2023-04-30T10:20:29.768Z,47.81
2023-04-30T10:23:00.368Z,49.37
2023-04-30T10:25:31.962Z,49.72
2023-04-30T10:28:03.957Z,49.49
2023-04-30T10:30:35.934Z,49.33
2023-04-30T10:33:16.274Z,46.19
2023-04-30T10:35:52.971Z,45.69
2023-04-30T10:38:26.936Z,46.19
2023-04-30T10:41:02.053Z,47.14
2023-04-30T10:43:35.630Z,47.01
2023-04-30T10:46:06.143Z,47.16
2023-04-30T10:48:38.170Z,47.97
2023-04-30T10:51:12.196Z,45.34
2023-04-30T10:53:45.860Z,46.22
2023-04-30T10:56:16.376Z,47.09
2023-04-30T10:58:46.671Z,45.52
2023-04-30T11:01:18.534Z,45.14
2023-04-30T11:04:08.434Z,42.35
2023-04-30T11:07:05.219Z,44.53
2023-04-30T11:09:40.598Z,42.57
2023-04-30T11:12:15.937Z,43.43
2023-04-30T11:14:47.546Z,44.89
2023-04-30T11:17:26.483Z,43.77
2023-04-30T11:19:57.970Z,43.18
2023-04-30T11:22:36.433Z,43.54
2023-04-30T11:25:09.747Z,42.89
2023-04-30T11:27:42.366Z,43.60
2023-04-30T11:30:16.985Z,44.72
2023-04-30T11:32:48.993Z,45.33
2023-04-30T11:35:21.987Z,42.34
2023-04-30T11:37:58.612Z,40.50
2023-04-30T11:40:29.728Z,43.75
2023-04-30T11:42:59.792Z,41.37
2023-04-30T11:45:30.630Z,41.30
2023-04-30T11:48:01.151Z,42.83
2023-04-30T11:50:36.741Z,38.44
2023-04-30T11:53:09.710Z,40.45
2023-04-30T11:55:40.573Z,41.70
2023-04-30T11:58:13.665Z,42.02
2023-04-30T12:00:44.148Z,40.60
2023-04-30T12:03:18.379Z,40.96
2023-04-30T12:05:50.280Z,42.44
2023-04-30T12:08:23.361Z,40.27
2023-04-30T12:10:53.237Z,40.00
2023-04-30T12:13:23.327Z,38.88
2023-04-30T12:16:03.635Z,39.55
2023-04-30T12:18:36.588Z,39.07
2023-04-30T12:21:07.330Z,40.93
2023-04-30T12:23:40.289Z,41.68
2023-04-30T12:26:10.558Z,39.88
2023-04-30T12:28:42.313Z,40.41
2023-04-30T12:31:12.877Z,40.05
2023-04-30T12:33:43.144Z,41.36
2023-04-30T12:36:14.271Z,39.43
2023-04-30T12:38:50.288Z,37.45
2023-04-30T12:41:21.447Z,39.55
2023-04-30T12:43:52.189Z,40.01
2023-04-30T12:46:29.895Z,37.40
2023-04-30T12:49:01.193Z,39.67
2023-04-30T12:51:33.318Z,38.28
2023-04-30T12:54:06.618Z,38.18
2023-04-30T12:56:36.544Z,38.98
2023-04-30T12:59:06.457Z,39.39
2023-04-30T13:01:36.534Z,38.74
2023-04-30T13:04:06.588Z,39.62
2023-04-30T13:06:36.839Z,37.10
2023-04-30T13:09:12.660Z,36.10
2023-04-30T13:11:42.508Z,38.92
2023-04-30T13:14:13.282Z,38.09
2023-04-30T13:16:43.311Z,38.62
2023-04-30T13:19:13.251Z,37.74
2023-04-30T13:21:43.699Z,38.08
2023-04-30T13:24:16.317Z,38.09
2023-04-30T13:26:46.413Z,38.91
2023-04-30T13:29:16.274Z,37.26
2023-04-30T13:31:46.215Z,38.49
2023-04-30T13:34:16.402Z,38.62
2023-04-30T13:36:47.197Z,38.65
2023-04-30T13:39:20.120Z,37.54
2023-04-30T13:41:49.961Z,37.80
2023-04-30T13:44:20.129Z,38.31
2023-04-30T13:46:50.692Z,38.08
2023-04-30T13:49:21.107Z,37.65
2023-04-30T13:51:51.206Z,38.18
2023-04-30T13:54:23.860Z,36.06
2023-04-30T13:56:56.222Z,38.16
2023-04-30T13:59:26.417Z,38.99
2023-04-30T14:01:56.288Z,36.13
2023-04-30T14:04:26.219Z,36.59
2023-04-30T14:06:56.870Z,36.59
2023-04-30T14:09:29.673Z,37.04
2023-04-30T14:12:00.426Z,38.12
2023-04-30T14:14:31.254Z,39.35
2023-04-30T14:17:01.497Z,39.57
2023-04-30T14:19:31.224Z,37.62
2023-04-30T14:22:01.206Z,37.81
2023-04-30T14:24:34.665Z,36.73
2023-04-30T14:27:04.661Z,38.29
2023-04-30T14:29:34.679Z,38.33
2023-04-30T14:32:05.018Z,38.12
2023-04-30T14:34:35.010Z,38.09
2023-04-30T14:37:06.005Z,37.85
2023-04-30T14:39:38.582Z,37.26
2023-04-30T14:42:09.070Z,38.01
2023-04-30T14:44:40.228Z,37.90
2023-04-30T14:47:10.166Z,38.43
2023-04-30T14:49:52.586Z,39.23
2023-04-30T14:52:22.979Z,38.40
2023-04-30T14:54:56.266Z,38.12
2023-04-30T14:57:27.608Z,39.45
2023-04-30T15:00:00.622Z,38.46
2023-04-30T15:02:30.998Z,38.18
2023-04-30T15:05:01.092Z,37.71
2023-04-30T15:07:30.912Z,38.53
2023-04-30T15:10:03.856Z,37.62
2023-04-30T15:12:34.721Z,37.40
2023-04-30T15:15:04.902Z,38.47
2023-04-30T15:17:37.160Z,39.24
2023-04-30T15:20:08.333Z,38.34
2023-04-30T15:22:38.465Z,38.37
2023-04-30T15:25:11.994Z,38.21
2023-04-30T15:27:42.022Z,38.65
2023-04-30T15:30:13.583Z,38.54
2023-04-30T15:32:43.706Z,38.38
2023-04-30T15:35:13.576Z,39.10
2023-04-30T15:37:43.514Z,38.41
2023-04-30T15:40:16.498Z,38.96
2023-04-30T15:42:46.977Z,39.37
2023-04-30T15:45:16.983Z,39.01
2023-04-30T15:47:47.180Z,39.76
2023-04-30T15:50:17.027Z,40.04
2023-04-30T15:52:46.960Z,39.95
2023-04-30T15:55:19.622Z,40.03
2023-04-30T15:57:49.540Z,39.94
2023-04-30T16:00:19.886Z,38.72
2023-04-30T16:02:50.253Z,39.29
2023-04-30T16:05:20.260Z,38.78
2023-04-30T16:07:50.325Z,39.15
2023-04-30T16:10:23.246Z,38.92
2023-04-30T16:12:53.267Z,39.85
2023-04-30T16:15:24.459Z,40.52
2023-04-30T16:17:55.905Z,40.34
2023-04-30T16:20:27.518Z,40.29
2023-04-30T16:22:57.899Z,40.76
2023-04-30T16:25:30.652Z,40.18
2023-04-30T16:28:00.663Z,40.92
2023-04-30T16:30:30.729Z,40.72
2023-04-30T16:33:00.611Z,40.30
2023-04-30T16:35:30.629Z,40.73
2023-04-30T16:38:01.460Z,40.90
2023-04-30T16:40:33.985Z,41.12
2023-04-30T16:43:06.322Z,41.01
2023-04-30T16:45:36.372Z,41.19
2023-04-30T16:48:06.579Z,40.97
2023-04-30T16:50:36.586Z,40.76
2023-04-30T16:53:07.087Z,40.98
2023-04-30T16:55:40.733Z,40.97
2023-04-30T16:58:10.584Z,41.22
2023-04-30T17:00:40.485Z,41.54
2023-04-30T17:03:10.522Z,41.46
2023-04-30T17:05:40.826Z,41.14
2023-04-30T17:08:10.682Z,41.80
2023-04-30T17:10:45.056Z,41.28
2023-04-30T17:13:15.546Z,41.95
2023-04-30T17:15:46.617Z,42.24
2023-04-30T17:18:16.605Z,42.09
2023-04-30T17:20:47.016Z,42.51
2023-04-30T17:23:17.154Z,42.23
2023-04-30T17:25:50.815Z,42.69
2023-04-30T17:28:20.868Z,42.44
2023-04-30T17:30:51.007Z,42.67
2023-04-30T17:33:21.083Z,43.16
2023-04-30T17:35:51.131Z,43.17
2023-04-30T17:38:22.312Z,42.83
2023-04-30T17:40:56.835Z,44.01
2023-04-30T17:43:27.033Z,44.61
2023-04-30T17:45:57.508Z,44.55
2023-04-30T17:48:27.604Z,44.80
2023-04-30T17:50:57.821Z,44.91
2023-04-30T17:53:27.813Z,45.18
2023-04-30T17:56:00.324Z,45.09
2023-04-30T17:58:30.635Z,44.45
2023-04-30T18:01:01.858Z,44.44
2023-04-30T18:03:32.768Z,44.23
2023-04-30T18:06:02.977Z,45.58
2023-04-30T18:08:32.910Z,45.43
2023-04-30T18:11:05.726Z,45.53
2023-04-30T18:13:37.209Z,45.83
2023-04-30T18:16:08.328Z,45.95
2023-04-30T18:18:38.297Z,45.88
2023-04-30T18:21:08.838Z,46.13
2023-04-30T18:23:38.661Z,45.07
2023-04-30T18:26:11.591Z,45.36
2023-04-30T18:28:42.096Z,46.07
2023-04-30T18:31:12.185Z,45.32
2023-04-30T18:33:42.118Z,46.30
2023-04-30T18:36:12.141Z,46.16
2023-04-30T18:38:42.180Z,46.71
2023-04-30T18:41:14.838Z,46.80
2023-04-30T18:43:45.994Z,46.75
2023-04-30T18:46:22.706Z,47.70
2023-04-30T18:48:52.746Z,47.64
2023-04-30T18:51:22.776Z,47.68
2023-04-30T18:53:53.165Z,47.84
2023-04-30T18:56:25.815Z,47.37
2023-04-30T18:58:55.699Z,48.44
2023-04-30T19:01:27.579Z,48.31
2023-04-30T19:03:57.549Z,48.14
2023-04-30T19:06:27.639Z,48.67
2023-04-30T19:08:59.984Z,48.03
2023-04-30T19:11:35.836Z,49.03
2023-04-30T19:14:08.032Z,49.88
2023-04-30T19:16:37.969Z,49.43
2023-04-30T19:19:07.823Z,49.68
2023-04-30T19:21:37.729Z,49.72
2023-04-30T19:24:07.894Z,50.36
2023-04-30T19:26:42.653Z,50.69
2023-04-30T19:29:12.649Z,50.15
2023-04-30T19:31:42.677Z,50.59
2023-04-30T19:34:13.998Z,50.67
2023-04-30T19:36:44.365Z,50.91
2023-04-30T19:39:15.767Z,51.72
2023-04-30T19:41:48.423Z,51.75
2023-04-30T19:44:20.388Z,52.07
2023-04-30T19:46:50.382Z,52.01
2023-04-30T19:49:20.362Z,52.36
2023-04-30T19:51:50.229Z,52.57
2023-04-30T19:54:20.228Z,52.61
2023-04-30T19:56:53.675Z,53.35
2023-04-30T19:59:23.930Z,52.57
2023-04-30T20:01:54.401Z,53.02
2023-04-30T20:04:26.655Z,53.58
2023-04-30T20:06:57.650Z,53.46
2023-04-30T20:09:28.100Z,53.99
2023-04-30T20:12:01.759Z,54.62
2023-04-30T20:14:31.582Z,54.17
2023-04-30T20:17:02.717Z,54.16
2023-04-30T20:19:32.896Z,54.63
2023-04-30T20:22:04.920Z,54.58
2023-04-30T20:24:34.890Z,54.63
2023-04-30T20:27:07.699Z,54.62
2023-04-30T20:29:40.211Z,54.67
2023-04-30T20:32:10.505Z,55.03
2023-04-30T20:34:40.507Z,55.38
2023-04-30T20:37:10.384Z,55.26
2023-04-30T20:39:41.705Z,55.72
2023-04-30T20:42:14.225Z,55.92
2023-04-30T20:44:44.070Z,55.94
2023-04-30T20:47:14.585Z,55.51
2023-04-30T20:49:45.162Z,55.58
2023-04-30T20:52:15.476Z,56.00
2023-04-30T20:54:45.936Z,56.29
2023-04-30T20:57:20.816Z,56.53
2023-04-30T20:59:50.681Z,56.17
2023-04-30T21:02:20.728Z,56.25
2023-04-30T21:04:50.702Z,56.67
2023-04-30T21:07:20.710Z,56.57
2023-04-30T21:09:51.006Z,56.44
2023-04-30T21:12:23.809Z,56.69
2023-04-30T21:14:54.542Z,56.83
2023-04-30T21:17:24.583Z,56.69
2023-04-30T21:19:55.282Z,57.00
2023-04-30T21:22:25.551Z,57.33
2023-04-30T21:24:57.182Z,57.26
2023-04-30T21:27:29.604Z,57.25
2023-04-30T21:29:59.461Z,57.59
2023-04-30T21:32:29.469Z,57.61
2023-04-30T21:34:59.720Z,57.54
2023-04-30T21:37:29.521Z,57.75
2023-04-30T21:39:59.534Z,57.70
2023-04-30T21:42:32.062Z,58.06
2023-04-30T21:45:01.940Z,58.11
2023-04-30T21:47:31.939Z,58.22
2023-04-30T21:50:02.001Z,58.07
2023-04-30T21:52:32.122Z,58.25
2023-04-30T21:55:02.211Z,58.88
2023-04-30T21:57:34.870Z,59.01
2023-04-30T22:00:05.737Z,58.99
2023-04-30T22:02:36.177Z,58.71
2023-04-30T22:05:06.645Z,58.71
2023-04-30T22:07:36.767Z,58.75
2023-04-30T22:10:08.084Z,58.92
2023-04-30T22:12:40.865Z,59.59
2023-04-30T22:15:12.383Z,59.38
2023-04-30T22:17:42.620Z,59.36
2023-04-30T22:20:13.148Z,59.69
2023-04-30T22:22:43.114Z,59.90
2023-04-30T22:25:13.179Z,59.52
2023-04-30T22:27:45.938Z,59.54
2023-04-30T22:30:19.251Z,59.64
2023-04-30T22:32:49.202Z,59.76
2023-04-30T22:35:19.892Z,59.77
2023-04-30T22:37:49.836Z,59.65
2023-04-30T22:40:20.760Z,59.77
2023-04-30T22:42:53.902Z,60.15
2023-04-30T22:45:23.896Z,60.22
2023-04-30T22:47:55.396Z,60.09
2023-04-30T22:50:25.404Z,60.38
2023-04-30T22:52:56.969Z,60.53
2023-04-30T22:55:27.399Z,60.93
2023-04-30T22:58:01.876Z,61.07
2023-04-30T23:00:31.996Z,61.00
2023-04-30T23:03:01.940Z,61.41
2023-04-30T23:05:31.969Z,61.33
2023-04-30T23:08:01.899Z,61.86
2023-04-30T23:10:31.974Z,62.29
2023-04-30T23:13:04.775Z,62.05
2023-04-30T23:15:34.591Z,62.33
2023-04-30T23:18:05.480Z,62.22
2023-04-30T23:20:35.484Z,62.55
2023-04-30T23:23:06.054Z,62.74
2023-04-30T23:25:35.918Z,62.84
2023-04-30T23:28:08.519Z,62.94
2023-04-30T23:30:41.067Z,62.93
2023-04-30T23:33:11.001Z,63.00
2023-04-30T23:35:45.948Z,63.45
2023-04-30T23:38:16.426Z,62.97
2023-04-30T23:40:47.500Z,63.33
2023-04-30T23:43:19.876Z,63.08
2023-04-30T23:45:49.839Z,63.01
2023-04-30T23:48:19.795Z,62.80
2023-04-30T23:50:49.831Z,63.00
2023-04-30T23:53:19.852Z,63.47
2023-04-30T23:55:49.841Z,63.62
2023-04-30T23:58:22.295Z,63.98
